sensor_id;sensor_type;location;lat;lon;timestamp;P1;durP1;ratioP1;P2;durP2;ratioP2
3211;SDS011;1618;47.056;15.472;2023-06-05T00:00:33;2.90;;;2.80;;
3211;SDS011;1618;47.056;15.472;2023-06-05T00:03:00;2.93;;;2.83;;
3211;SDS011;1618;47.056;15.472;2023-06-05T00:05:30;2.90;;;2.80;;
3211;SDS011;1618;47.056;15.472;2023-06-05T00:08:00;3.20;;;3.10;;
3211;SDS011;1618;47.056;15.472;2023-06-05T00:10:27;2.73;;;2.63;;
3211;SDS011;1618;47.056;15.472;2023-06-05T00:12:56;2.80;;;2.70;;
3211;SDS011;1618;47.056;15.472;2023-06-05T00:15:23;2.60;;;2.50;;
3211;SDS011;1618;47.056;15.472;2023-06-05T00:17:51;2.80;;;2.70;;
3211;SDS011;1618;47.056;15.472;2023-06-05T00:20:20;2.70;;;2.60;;
3211;SDS011;1618;47.056;15.472;2023-06-05T00:22:47;3.00;;;2.90;;
3211;SDS011;1618;47.056;15.472;2023-06-05T00:25:18;3.00;;;2.90;;
3211;SDS011;1618;47.056;15.472;2023-06-05T00:27:46;3.50;;;3.30;;
3211;SDS011;1618;47.056;15.472;2023-06-05T00:30:18;3.10;;;2.90;;
3211;SDS011;1618;47.056;15.472;2023-06-05T00:32:50;3.00;;;2.90;;
3211;SDS011;1618;47.056;15.472;2023-06-05T00:35:17;2.80;;;2.70;;
3211;SDS011;1618;47.056;15.472;2023-06-05T00:37:47;3.40;;;3.30;;
3211;SDS011;1618;47.056;15.472;2023-06-05T00:40:15;3.40;;;3.20;;
3211;SDS011;1618;47.056;15.472;2023-06-05T00:42:43;3.10;;;3.00;;
3211;SDS011;1618;47.056;15.472;2023-06-05T00:45:16;3.30;;;3.20;;
3211;SDS011;1618;47.056;15.472;2023-06-05T00:47:45;3.47;;;3.27;;
3211;SDS011;1618;47.056;15.472;2023-06-05T00:50:13;2.83;;;2.73;;
3211;SDS011;1618;47.056;15.472;2023-06-05T00:52:43;3.70;;;3.50;;
3211;SDS011;1618;47.056;15.472;2023-06-05T00:55:10;3.30;;;3.20;;
3211;SDS011;1618;47.056;15.472;2023-06-05T00:57:38;3.23;;;3.13;;
3211;SDS011;1618;47.056;15.472;2023-06-05T01:00:08;3.23;;;3.10;;
3211;SDS011;1618;47.056;15.472;2023-06-05T01:02:38;3.30;;;3.20;;
3211;SDS011;1618;47.056;15.472;2023-06-05T01:05:07;3.17;;;3.07;;
3211;SDS011;1618;47.056;15.472;2023-06-05T01:07:41;3.10;;;3.00;;
3211;SDS011;1618;47.056;15.472;2023-06-05T01:10:09;3.20;;;3.10;;
3211;SDS011;1618;47.056;15.472;2023-06-05T01:12:41;3.47;;;3.37;;
3211;SDS011;1618;47.056;15.472;2023-06-05T01:15:12;3.30;;;3.20;;
3211;SDS011;1618;47.056;15.472;2023-06-05T01:17:42;4.03;;;3.83;;
3211;SDS011;1618;47.056;15.472;2023-06-05T01:20:13;3.83;;;3.73;;
3211;SDS011;1618;47.056;15.472;2023-06-05T01:22:42;3.70;;;3.50;;
3211;SDS011;1618;47.056;15.472;2023-06-05T01:25:10;4.07;;;3.90;;
3211;SDS011;1618;47.056;15.472;2023-06-05T01:27:40;3.30;;;3.20;;
3211;SDS011;1618;47.056;15.472;2023-06-05T01:30:10;3.83;;;3.53;;
3211;SDS011;1618;47.056;15.472;2023-06-05T01:32:43;3.53;;;3.33;;
3211;SDS011;1618;47.056;15.472;2023-06-05T01:35:20;3.20;;;3.10;;
3211;SDS011;1618;47.056;15.472;2023-06-05T01:37:54;4.10;;;3.90;;
3211;SDS011;1618;47.056;15.472;2023-06-05T01:40:27;5.17;;;4.97;;
3211;SDS011;1618;47.056;15.472;2023-06-05T01:42:55;4.63;;;4.43;;
3211;SDS011;1618;47.056;15.472;2023-06-05T01:45:24;4.47;;;4.17;;
3211;SDS011;1618;47.056;15.472;2023-06-05T01:47:52;4.07;;;3.93;;
3211;SDS011;1618;47.056;15.472;2023-06-05T01:50:22;3.67;;;3.57;;
3211;SDS011;1618;47.056;15.472;2023-06-05T01:52:51;3.83;;;3.53;;
3211;SDS011;1618;47.056;15.472;2023-06-05T01:55:22;2.77;;;2.63;;
3211;SDS011;1618;47.056;15.472;2023-06-05T01:57:51;3.50;;;3.40;;
3211;SDS011;1618;47.056;15.472;2023-06-05T02:00:18;3.10;;;3.00;;
3211;SDS011;1618;47.056;15.472;2023-06-05T02:02:47;3.67;;;3.47;;
3211;SDS011;1618;47.056;15.472;2023-06-05T02:05:15;4.00;;;3.80;;
3211;SDS011;1618;47.056;15.472;2023-06-05T02:07:46;4.13;;;3.90;;
3211;SDS011;1618;47.056;15.472;2023-06-05T02:10:19;3.83;;;3.63;;
3211;SDS011;1618;47.056;15.472;2023-06-05T02:12:51;3.60;;;3.50;;
3211;SDS011;1618;47.056;15.472;2023-06-05T02:15:21;4.07;;;3.87;;
3211;SDS011;1618;47.056;15.472;2023-06-05T02:17:51;4.27;;;3.97;;
3211;SDS011;1618;47.056;15.472;2023-06-05T02:20:19;4.20;;;4.00;;
3211;SDS011;1618;47.056;15.472;2023-06-05T02:22:47;4.00;;;3.80;;
3211;SDS011;1618;47.056;15.472;2023-06-05T02:25:18;4.00;;;3.80;;
3211;SDS011;1618;47.056;15.472;2023-06-05T02:27:53;3.37;;;3.20;;
3211;SDS011;1618;47.056;15.472;2023-06-05T02:30:20;3.87;;;3.70;;
3211;SDS011;1618;47.056;15.472;2023-06-05T02:32:49;3.93;;;3.73;;
3211;SDS011;1618;47.056;15.472;2023-06-05T02:35:22;3.87;;;3.77;;
3211;SDS011;1618;47.056;15.472;2023-06-05T02:37:50;3.63;;;3.53;;
3211;SDS011;1618;47.056;15.472;2023-06-05T02:40:18;3.30;;;3.20;;
3211;SDS011;1618;47.056;15.472;2023-06-05T02:42:45;3.90;;;3.70;;
3211;SDS011;1618;47.056;15.472;2023-06-05T02:45:16;3.57;;;3.47;;
3211;SDS011;1618;47.056;15.472;2023-06-05T02:47:50;4.07;;;3.93;;
3211;SDS011;1618;47.056;15.472;2023-06-05T02:50:21;4.10;;;3.90;;
3211;SDS011;1618;47.056;15.472;2023-06-05T02:52:49;3.43;;;3.33;;
3211;SDS011;1618;47.056;15.472;2023-06-05T02:55:17;3.30;;;3.20;;
3211;SDS011;1618;47.056;15.472;2023-06-05T02:57:45;4.87;;;4.57;;
3211;SDS011;1618;47.056;15.472;2023-06-05T03:00:14;3.70;;;3.60;;
3211;SDS011;1618;47.056;15.472;2023-06-05T03:02:44;8.60;;;3.87;;
3211;SDS011;1618;47.056;15.472;2023-06-05T03:05:14;4.30;;;4.10;;
3211;SDS011;1618;47.056;15.472;2023-06-05T03:07:43;3.60;;;3.50;;
3211;SDS011;1618;47.056;15.472;2023-06-05T03:10:12;3.83;;;3.73;;
3211;SDS011;1618;47.056;15.472;2023-06-05T03:12:39;3.80;;;3.70;;
3211;SDS011;1618;47.056;15.472;2023-06-05T03:15:07;3.80;;;3.67;;
3211;SDS011;1618;47.056;15.472;2023-06-05T03:17:35;4.00;;;3.90;;
3211;SDS011;1618;47.056;15.472;2023-06-05T03:20:05;4.60;;;4.40;;
3211;SDS011;1618;47.056;15.472;2023-06-05T03:22:36;3.67;;;3.57;;
3211;SDS011;1618;47.056;15.472;2023-06-05T03:25:05;4.00;;;3.80;;
3211;SDS011;1618;47.056;15.472;2023-06-05T03:27:38;3.80;;;3.60;;
3211;SDS011;1618;47.056;15.472;2023-06-05T03:30:07;4.80;;;4.40;;
3211;SDS011;1618;47.056;15.472;2023-06-05T03:32:40;4.47;;;4.27;;
3211;SDS011;1618;47.056;15.472;2023-06-05T03:35:10;4.40;;;4.20;;
3211;SDS011;1618;47.056;15.472;2023-06-05T03:37:38;4.37;;;4.17;;
3211;SDS011;1618;47.056;15.472;2023-06-05T03:40:06;3.80;;;3.63;;
3211;SDS011;1618;47.056;15.472;2023-06-05T03:42:34;4.20;;;4.00;;
3211;SDS011;1618;47.056;15.472;2023-06-05T03:45:03;4.23;;;4.03;;
3211;SDS011;1618;47.056;15.472;2023-06-05T03:47:33;4.83;;;4.63;;
3211;SDS011;1618;47.056;15.472;2023-06-05T03:50:02;4.17;;;3.97;;
3211;SDS011;1618;47.056;15.472;2023-06-05T03:52:33;4.87;;;4.67;;
3211;SDS011;1618;47.056;15.472;2023-06-05T03:55:03;4.90;;;4.70;;
3211;SDS011;1618;47.056;15.472;2023-06-05T03:57:33;4.87;;;4.67;;
3211;SDS011;1618;47.056;15.472;2023-06-05T04:00:05;5.30;;;5.00;;
3211;SDS011;1618;47.056;15.472;2023-06-05T04:02:34;5.57;;;5.17;;
3211;SDS011;1618;47.056;15.472;2023-06-05T04:05:03;4.10;;;4.00;;
3211;SDS011;1618;47.056;15.472;2023-06-05T04:07:34;4.60;;;4.40;;
3211;SDS011;1618;47.056;15.472;2023-06-05T04:10:03;4.87;;;4.63;;
3211;SDS011;1618;47.056;15.472;2023-06-05T04:12:32;4.83;;;4.53;;
3211;SDS011;1618;47.056;15.472;2023-06-05T04:15:10;4.10;;;3.90;;
3211;SDS011;1618;47.056;15.472;2023-06-05T04:17:38;5.10;;;4.80;;
3211;SDS011;1618;47.056;15.472;2023-06-05T04:20:07;4.50;;;4.30;;
3211;SDS011;1618;47.056;15.472;2023-06-05T04:22:42;4.70;;;4.50;;
3211;SDS011;1618;47.056;15.472;2023-06-05T04:25:11;4.53;;;4.32;;
3211;SDS011;1618;47.056;15.472;2023-06-05T04:27:38;4.70;;;4.53;;
3211;SDS011;1618;47.056;15.472;2023-06-05T04:30:07;5.77;;;5.47;;
3211;SDS011;1618;47.056;15.472;2023-06-05T04:32:35;5.27;;;5.07;;
3211;SDS011;1618;47.056;15.472;2023-06-05T04:35:05;5.20;;;5.00;;
3211;SDS011;1618;47.056;15.472;2023-06-05T04:37:33;6.27;;;5.97;;
3211;SDS011;1618;47.056;15.472;2023-06-05T04:40:03;6.10;;;5.80;;
3211;SDS011;1618;47.056;15.472;2023-06-05T04:42:31;5.80;;;5.50;;
3211;SDS011;1618;47.056;15.472;2023-06-05T04:45:01;6.13;;;5.83;;
3211;SDS011;1618;47.056;15.472;2023-06-05T04:47:31;5.50;;;5.30;;
3211;SDS011;1618;47.056;15.472;2023-06-05T04:50:00;5.73;;;5.43;;
3211;SDS011;1618;47.056;15.472;2023-06-05T04:52:30;5.40;;;5.00;;
3211;SDS011;1618;47.056;15.472;2023-06-05T04:55:05;5.60;;;5.30;;
3211;SDS011;1618;47.056;15.472;2023-06-05T04:57:42;5.73;;;5.47;;
3211;SDS011;1618;47.056;15.472;2023-06-05T05:00:11;6.07;;;5.77;;
3211;SDS011;1618;47.056;15.472;2023-06-05T05:02:40;5.70;;;5.50;;
3211;SDS011;1618;47.056;15.472;2023-06-05T05:05:08;4.97;;;4.77;;
3211;SDS011;1618;47.056;15.472;2023-06-05T05:07:40;5.10;;;4.90;;
3211;SDS011;1618;47.056;15.472;2023-06-05T05:10:10;5.07;;;4.77;;
3211;SDS011;1618;47.056;15.472;2023-06-05T05:12:38;5.07;;;4.87;;
3211;SDS011;1618;47.056;15.472;2023-06-05T05:15:12;5.10;;;4.80;;
3211;SDS011;1618;47.056;15.472;2023-06-05T05:17:41;6.83;;;6.53;;
3211;SDS011;1618;47.056;15.472;2023-06-05T05:20:09;6.53;;;6.23;;
3211;SDS011;1618;47.056;15.472;2023-06-05T05:22:37;5.90;;;5.70;;
3211;SDS011;1618;47.056;15.472;2023-06-05T05:25:05;6.10;;;5.90;;
3211;SDS011;1618;47.056;15.472;2023-06-05T05:27:37;7.10;;;6.80;;
3211;SDS011;1618;47.056;15.472;2023-06-05T05:30:05;6.43;;;6.10;;
3211;SDS011;1618;47.056;15.472;2023-06-05T05:32:33;6.03;;;5.83;;
3211;SDS011;1618;47.056;15.472;2023-06-05T05:35:01;6.60;;;6.20;;
3211;SDS011;1618;47.056;15.472;2023-06-05T05:37:31;5.80;;;5.60;;
3211;SDS011;1618;47.056;15.472;2023-06-05T05:39:59;6.87;;;6.50;;
3211;SDS011;1618;47.056;15.472;2023-06-05T05:42:28;6.60;;;6.30;;
3211;SDS011;1618;47.056;15.472;2023-06-05T05:44:57;6.43;;;6.20;;
3211;SDS011;1618;47.056;15.472;2023-06-05T05:47:25;5.90;;;5.60;;
3211;SDS011;1618;47.056;15.472;2023-06-05T05:49:55;6.87;;;6.47;;
3211;SDS011;1618;47.056;15.472;2023-06-05T05:52:24;6.87;;;6.57;;
3211;SDS011;1618;47.056;15.472;2023-06-05T05:54:52;6.30;;;6.00;;
3211;SDS011;1618;47.056;15.472;2023-06-05T05:57:21;8.00;;;7.60;;
3211;SDS011;1618;47.056;15.472;2023-06-05T05:59:48;6.70;;;6.40;;
3211;SDS011;1618;47.056;15.472;2023-06-05T06:02:18;6.37;;;6.07;;
3211;SDS011;1618;47.056;15.472;2023-06-05T06:04:46;7.60;;;7.30;;
3211;SDS011;1618;47.056;15.472;2023-06-05T06:07:14;9.03;;;8.63;;
3211;SDS011;1618;47.056;15.472;2023-06-05T06:09:47;8.90;;;8.50;;
3211;SDS011;1618;47.056;15.472;2023-06-05T06:12:14;9.30;;;8.77;;
3211;SDS011;1618;47.056;15.472;2023-06-05T06:14:42;8.53;;;8.03;;
3211;SDS011;1618;47.056;15.472;2023-06-05T06:17:11;8.80;;;8.50;;
3211;SDS011;1618;47.056;15.472;2023-06-05T06:19:41;9.00;;;8.60;;
3211;SDS011;1618;47.056;15.472;2023-06-05T06:22:10;10.40;;;9.90;;
3211;SDS011;1618;47.056;15.472;2023-06-05T06:24:39;10.27;;;9.87;;
3211;SDS011;1618;47.056;15.472;2023-06-05T06:27:07;11.37;;;10.87;;
3211;SDS011;1618;47.056;15.472;2023-06-05T06:29:45;11.93;;;11.43;;
3211;SDS011;1618;47.056;15.472;2023-06-05T06:32:14;11.13;;;10.63;;
3211;SDS011;1618;47.056;15.472;2023-06-05T06:34:45;10.40;;;9.90;;
3211;SDS011;1618;47.056;15.472;2023-06-05T06:37:14;9.57;;;9.07;;
3211;SDS011;1618;47.056;15.472;2023-06-05T06:39:43;9.33;;;8.90;;
3211;SDS011;1618;47.056;15.472;2023-06-05T06:42:11;9.80;;;9.20;;
3211;SDS011;1618;47.056;15.472;2023-06-05T06:44:40;11.23;;;10.73;;
3211;SDS011;1618;47.056;15.472;2023-06-05T06:47:08;10.27;;;9.87;;
3211;SDS011;1618;47.056;15.472;2023-06-05T06:49:36;9.50;;;9.10;;
3211;SDS011;1618;47.056;15.472;2023-06-05T06:52:06;10.20;;;9.80;;
3211;SDS011;1618;47.056;15.472;2023-06-05T06:54:34;11.60;;;11.10;;
3211;SDS011;1618;47.056;15.472;2023-06-05T06:57:03;11.47;;;10.97;;
3211;SDS011;1618;47.056;15.472;2023-06-05T06:59:33;13.13;;;12.53;;
3211;SDS011;1618;47.056;15.472;2023-06-05T07:02:11;12.80;;;12.20;;
3211;SDS011;1618;47.056;15.472;2023-06-05T07:04:38;13.50;;;12.80;;
3211;SDS011;1618;47.056;15.472;2023-06-05T07:07:11;12.93;;;12.33;;
3211;SDS011;1618;47.056;15.472;2023-06-05T07:09:39;13.53;;;12.93;;
3211;SDS011;1618;47.056;15.472;2023-06-05T07:12:15;13.70;;;13.10;;
3211;SDS011;1618;47.056;15.472;2023-06-05T07:14:46;13.23;;;12.63;;
3211;SDS011;1618;47.056;15.472;2023-06-05T07:17:14;13.37;;;12.77;;
3211;SDS011;1618;47.056;15.472;2023-06-05T07:19:46;14.33;;;13.53;;
3211;SDS011;1618;47.056;15.472;2023-06-05T07:22:20;13.23;;;12.63;;
3211;SDS011;1618;47.056;15.472;2023-06-05T07:24:52;12.80;;;12.20;;
3211;SDS011;1618;47.056;15.472;2023-06-05T07:27:20;13.40;;;12.70;;
3211;SDS011;1618;47.056;15.472;2023-06-05T07:29:47;14.53;;;13.87;;
3211;SDS011;1618;47.056;15.472;2023-06-05T07:32:17;15.50;;;14.80;;
3211;SDS011;1618;47.056;15.472;2023-06-05T07:34:52;16.20;;;15.50;;
3211;SDS011;1618;47.056;15.472;2023-06-05T07:37:24;16.83;;;16.03;;
3211;SDS011;1618;47.056;15.472;2023-06-05T07:39:52;17.40;;;16.50;;
3211;SDS011;1618;47.056;15.472;2023-06-05T07:42:19;14.23;;;13.53;;
3211;SDS011;1618;47.056;15.472;2023-06-05T07:44:48;14.30;;;13.70;;
3211;SDS011;1618;47.056;15.472;2023-06-05T07:47:16;13.67;;;13.07;;
3211;SDS011;1618;47.056;15.472;2023-06-05T07:49:44;14.30;;;13.57;;
3211;SDS011;1618;47.056;15.472;2023-06-05T07:52:26;13.20;;;12.70;;
3211;SDS011;1618;47.056;15.472;2023-06-05T07:54:55;13.00;;;12.40;;
3211;SDS011;1618;47.056;15.472;2023-06-05T07:57:23;14.47;;;13.77;;
3211;SDS011;1618;47.056;15.472;2023-06-05T07:59:54;13.67;;;13.07;;
3211;SDS011;1618;47.056;15.472;2023-06-05T08:02:24;13.57;;;12.97;;
3211;SDS011;1618;47.056;15.472;2023-06-05T08:04:51;14.17;;;13.47;;
3211;SDS011;1618;47.056;15.472;2023-06-05T08:07:19;12.43;;;11.93;;
3211;SDS011;1618;47.056;15.472;2023-06-05T08:09:54;10.97;;;10.40;;
3211;SDS011;1618;47.056;15.472;2023-06-05T08:12:22;10.93;;;10.43;;
3211;SDS011;1618;47.056;15.472;2023-06-05T08:14:51;11.00;;;10.40;;
3211;SDS011;1618;47.056;15.472;2023-06-05T08:17:19;11.17;;;10.67;;
3211;SDS011;1618;47.056;15.472;2023-06-05T08:19:55;12.47;;;11.80;;
3211;SDS011;1618;47.056;15.472;2023-06-05T08:22:34;11.67;;;11.17;;
3211;SDS011;1618;47.056;15.472;2023-06-05T08:25:08;10.40;;;9.90;;
3211;SDS011;1618;47.056;15.472;2023-06-05T08:27:41;8.80;;;8.30;;
3211;SDS011;1618;47.056;15.472;2023-06-05T08:30:09;8.23;;;7.83;;
3211;SDS011;1618;47.056;15.472;2023-06-05T08:32:38;8.50;;;8.00;;
3211;SDS011;1618;47.056;15.472;2023-06-05T08:35:08;6.70;;;6.40;;
3211;SDS011;1618;47.056;15.472;2023-06-05T08:37:40;6.50;;;6.10;;
3211;SDS011;1618;47.056;15.472;2023-06-05T08:40:09;6.23;;;5.90;;
3211;SDS011;1618;47.056;15.472;2023-06-05T08:42:37;5.50;;;5.27;;
3211;SDS011;1618;47.056;15.472;2023-06-05T08:45:07;5.20;;;5.00;;
3211;SDS011;1618;47.056;15.472;2023-06-05T08:47:36;5.50;;;5.10;;
3211;SDS011;1618;47.056;15.472;2023-06-05T08:50:04;5.23;;;5.03;;
3211;SDS011;1618;47.056;15.472;2023-06-05T08:52:38;5.30;;;5.10;;
3211;SDS011;1618;47.056;15.472;2023-06-05T08:55:11;5.27;;;4.97;;
3211;SDS011;1618;47.056;15.472;2023-06-05T08:57:40;4.30;;;4.10;;
3211;SDS011;1618;47.056;15.472;2023-06-05T09:00:13;3.73;;;3.53;;
3211;SDS011;1618;47.056;15.472;2023-06-05T09:02:46;4.40;;;4.10;;
3211;SDS011;1618;47.056;15.472;2023-06-05T09:05:20;2.83;;;2.73;;
3211;SDS011;1618;47.056;15.472;2023-06-05T09:07:48;4.20;;;3.90;;
3211;SDS011;1618;47.056;15.472;2023-06-05T09:10:23;4.00;;;3.73;;
3211;SDS011;1618;47.056;15.472;2023-06-05T09:12:54;4.50;;;3.97;;
3211;SDS011;1618;47.056;15.472;2023-06-05T09:15:22;3.10;;;2.90;;
3211;SDS011;1618;47.056;15.472;2023-06-05T09:20:36;3.70;;;3.37;;
3211;SDS011;1618;47.056;15.472;2023-06-05T09:23:03;3.57;;;3.37;;
3211;SDS011;1618;47.056;15.472;2023-06-05T09:25:45;3.03;;;2.83;;
3211;SDS011;1618;47.056;15.472;2023-06-05T09:28:17;2.60;;;2.50;;
3211;SDS011;1618;47.056;15.472;2023-06-05T09:30:54;2.77;;;2.60;;
3211;SDS011;1618;47.056;15.472;2023-06-05T09:33:23;3.20;;;3.10;;
3211;SDS011;1618;47.056;15.472;2023-06-05T09:36:03;1.40;;;1.40;;
3211;SDS011;1618;47.056;15.472;2023-06-05T09:38:32;2.83;;;2.67;;
3211;SDS011;1618;47.056;15.472;2023-06-05T09:41:04;3.50;;;3.30;;
3211;SDS011;1618;47.056;15.472;2023-06-05T09:43:33;3.10;;;2.90;;
3211;SDS011;1618;47.056;15.472;2023-06-05T09:46:08;3.37;;;3.17;;
3211;SDS011;1618;47.056;15.472;2023-06-05T09:48:38;3.80;;;3.60;;
3211;SDS011;1618;47.056;15.472;2023-06-05T09:51:10;2.83;;;2.73;;
3211;SDS011;1618;47.056;15.472;2023-06-05T09:53:38;3.50;;;3.30;;
3211;SDS011;1618;47.056;15.472;2023-06-05T09:56:11;3.33;;;3.13;;
3211;SDS011;1618;47.056;15.472;2023-06-05T09:58:43;3.53;;;3.33;;
3211;SDS011;1618;47.056;15.472;2023-06-05T10:01:15;2.90;;;2.80;;
3211;SDS011;1618;47.056;15.472;2023-06-05T10:03:47;2.93;;;2.83;;
3211;SDS011;1618;47.056;15.472;2023-06-05T10:06:15;2.70;;;2.60;;
3211;SDS011;1618;47.056;15.472;2023-06-05T10:08:49;2.87;;;2.77;;
3211;SDS011;1618;47.056;15.472;2023-06-05T10:11:22;2.70;;;2.60;;
3211;SDS011;1618;47.056;15.472;2023-06-05T10:13:50;2.77;;;2.60;;
3211;SDS011;1618;47.056;15.472;2023-06-05T10:16:21;3.00;;;2.90;;
3211;SDS011;1618;47.056;15.472;2023-06-05T10:18:52;2.87;;;2.77;;
3211;SDS011;1618;47.056;15.472;2023-06-05T10:21:22;3.17;;;3.07;;
3211;SDS011;1618;47.056;15.472;2023-06-05T10:23:50;2.80;;;2.70;;
3211;SDS011;1618;47.056;15.472;2023-06-05T10:26:25;2.60;;;2.50;;
3211;SDS011;1618;47.056;15.472;2023-06-05T10:28:59;2.07;;;1.97;;
3211;SDS011;1618;47.056;15.472;2023-06-05T10:31:45;2.43;;;2.33;;
3211;SDS011;1618;47.056;15.472;2023-06-05T10:34:23;3.17;;;2.97;;
3211;SDS011;1618;47.056;15.472;2023-06-05T10:37:16;2.37;;;2.17;;
3211;SDS011;1618;47.056;15.472;2023-06-05T10:39:48;2.70;;;2.60;;
3211;SDS011;1618;47.056;15.472;2023-06-05T10:42:24;3.43;;;3.23;;
3211;SDS011;1618;47.056;15.472;2023-06-05T10:45:00;2.40;;;2.30;;
3211;SDS011;1618;47.056;15.472;2023-06-05T10:50:23;2.63;;;2.43;;
3211;SDS011;1618;47.056;15.472;2023-06-05T10:52:53;2.70;;;2.60;;
3211;SDS011;1618;47.056;15.472;2023-06-05T10:55:40;2.93;;;2.80;;
3211;SDS011;1618;47.056;15.472;2023-06-05T10:58:13;2.97;;;2.77;;
3211;SDS011;1618;47.056;15.472;2023-06-05T11:06:12;2.97;;;2.87;;
3211;SDS011;1618;47.056;15.472;2023-06-05T11:08:39;2.50;;;2.40;;
3211;SDS011;1618;47.056;15.472;2023-06-05T11:11:06;2.80;;;2.70;;
3211;SDS011;1618;47.056;15.472;2023-06-05T11:13:54;2.40;;;2.30;;
3211;SDS011;1618;47.056;15.472;2023-06-05T11:16:25;2.80;;;2.70;;
3211;SDS011;1618;47.056;15.472;2023-06-05T11:18:52;3.30;;;3.10;;
3211;SDS011;1618;47.056;15.472;2023-06-05T11:21:20;4.20;;;3.90;;
3211;SDS011;1618;47.056;15.472;2023-06-05T11:26:41;3.40;;;3.20;;
3211;SDS011;1618;47.056;15.472;2023-06-05T11:29:13;3.00;;;2.80;;
3211;SDS011;1618;47.056;15.472;2023-06-05T11:31:44;2.77;;;2.67;;
3211;SDS011;1618;47.056;15.472;2023-06-05T11:34:14;3.13;;;2.90;;
3211;SDS011;1618;47.056;15.472;2023-06-05T11:36:48;2.83;;;2.73;;
3211;SDS011;1618;47.056;15.472;2023-06-05T11:39:17;2.93;;;2.83;;
3211;SDS011;1618;47.056;15.472;2023-06-05T11:41:51;2.97;;;2.77;;
3211;SDS011;1618;47.056;15.472;2023-06-05T11:44:33;2.50;;;2.40;;
3211;SDS011;1618;47.056;15.472;2023-06-05T11:47:02;2.40;;;2.30;;
3211;SDS011;1618;47.056;15.472;2023-06-05T11:49:31;2.57;;;2.47;;
3211;SDS011;1618;47.056;15.472;2023-06-05T11:51:58;2.30;;;2.20;;
3211;SDS011;1618;47.056;15.472;2023-06-05T11:54:28;2.60;;;2.50;;
3211;SDS011;1618;47.056;15.472;2023-06-05T11:56:57;2.80;;;2.70;;
3211;SDS011;1618;47.056;15.472;2023-06-05T11:59:27;3.00;;;2.80;;
3211;SDS011;1618;47.056;15.472;2023-06-05T12:01:58;2.57;;;2.40;;
3211;SDS011;1618;47.056;15.472;2023-06-05T12:04:29;2.50;;;2.40;;
3211;SDS011;1618;47.056;15.472;2023-06-05T12:07:06;2.67;;;2.57;;
3211;SDS011;1618;47.056;15.472;2023-06-05T12:09:34;3.20;;;2.97;;
3211;SDS011;1618;47.056;15.472;2023-06-05T12:12:07;2.83;;;2.73;;
3211;SDS011;1618;47.056;15.472;2023-06-05T12:14:35;2.80;;;2.70;;
3211;SDS011;1618;47.056;15.472;2023-06-05T12:17:11;2.50;;;2.40;;
3211;SDS011;1618;47.056;15.472;2023-06-05T12:19:40;2.80;;;2.60;;
3211;SDS011;1618;47.056;15.472;2023-06-05T12:22:09;2.53;;;2.43;;
3211;SDS011;1618;47.056;15.472;2023-06-05T12:24:40;3.30;;;3.10;;
3211;SDS011;1618;47.056;15.472;2023-06-05T12:27:08;2.50;;;2.40;;
3211;SDS011;1618;47.056;15.472;2023-06-05T12:29:37;3.23;;;3.03;;
3211;SDS011;1618;47.056;15.472;2023-06-05T12:45:34;2.50;;;2.40;;
3211;SDS011;1618;47.056;15.472;2023-06-05T12:48:04;2.23;;;2.13;;
3211;SDS011;1618;47.056;15.472;2023-06-05T12:50:33;2.37;;;2.27;;
3211;SDS011;1618;47.056;15.472;2023-06-05T12:53:07;2.27;;;2.17;;
3211;SDS011;1618;47.056;15.472;2023-06-05T12:55:39;2.53;;;2.43;;
3211;SDS011;1618;47.056;15.472;2023-06-05T12:58:07;2.20;;;2.10;;
3211;SDS011;1618;47.056;15.472;2023-06-05T13:00:45;2.23;;;2.13;;
3211;SDS011;1618;47.056;15.472;2023-06-05T13:03:19;2.30;;;2.20;;
3211;SDS011;1618;47.056;15.472;2023-06-05T13:05:53;2.63;;;2.53;;
3211;SDS011;1618;47.056;15.472;2023-06-05T13:08:21;3.30;;;3.10;;
3211;SDS011;1618;47.056;15.472;2023-06-05T13:10:50;3.10;;;2.90;;
3211;SDS011;1618;47.056;15.472;2023-06-05T13:13:18;2.90;;;2.80;;
3211;SDS011;1618;47.056;15.472;2023-06-05T13:15:48;2.87;;;2.67;;
3211;SDS011;1618;47.056;15.472;2023-06-05T13:18:16;2.77;;;2.60;;
3211;SDS011;1618;47.056;15.472;2023-06-05T13:20:44;2.93;;;2.73;;
3211;SDS011;1618;47.056;15.472;2023-06-05T13:23:13;2.63;;;2.53;;
3211;SDS011;1618;47.056;15.472;2023-06-05T13:25:40;3.17;;;2.43;;
3211;SDS011;1618;47.056;15.472;2023-06-05T13:28:07;3.13;;;2.93;;
3211;SDS011;1618;47.056;15.472;2023-06-05T13:30:42;2.80;;;2.67;;
3211;SDS011;1618;47.056;15.472;2023-06-05T13:33:12;3.43;;;3.23;;
3211;SDS011;1618;47.056;15.472;2023-06-05T13:35:39;3.13;;;2.93;;
3211;SDS011;1618;47.056;15.472;2023-06-05T13:38:09;2.70;;;2.60;;
3211;SDS011;1618;47.056;15.472;2023-06-05T13:40:36;3.30;;;3.07;;
3211;SDS011;1618;47.056;15.472;2023-06-05T13:43:04;3.23;;;3.03;;
3211;SDS011;1618;47.056;15.472;2023-06-05T13:45:33;2.80;;;2.60;;
3211;SDS011;1618;47.056;15.472;2023-06-05T13:48:00;2.93;;;2.73;;
3211;SDS011;1618;47.056;15.472;2023-06-05T13:50:33;3.17;;;3.07;;
3211;SDS011;1618;47.056;15.472;2023-06-05T13:53:01;3.80;;;2.20;;
3211;SDS011;1618;47.056;15.472;2023-06-05T13:55:32;2.20;;;2.20;;
3211;SDS011;1618;47.056;15.472;2023-06-05T13:58:00;1.70;;;1.70;;
3211;SDS011;1618;47.056;15.472;2023-06-05T14:00:29;3.70;;;3.50;;
3211;SDS011;1618;47.056;15.472;2023-06-05T14:02:56;3.40;;;3.17;;
3211;SDS011;1618;47.056;15.472;2023-06-05T14:05:25;3.10;;;2.90;;
3211;SDS011;1618;47.056;15.472;2023-06-05T14:07:56;3.20;;;3.00;;
3211;SDS011;1618;47.056;15.472;2023-06-05T14:10:24;2.83;;;2.63;;
3211;SDS011;1618;47.056;15.472;2023-06-05T14:12:52;2.83;;;2.73;;
3211;SDS011;1618;47.056;15.472;2023-06-05T14:15:22;3.13;;;2.93;;
3211;SDS011;1618;47.056;15.472;2023-06-05T14:17:51;3.03;;;2.90;;
3211;SDS011;1618;47.056;15.472;2023-06-05T14:20:26;3.27;;;3.07;;
3211;SDS011;1618;47.056;15.472;2023-06-05T14:22:57;3.17;;;2.97;;
3211;SDS011;1618;47.056;15.472;2023-06-05T14:25:30;3.40;;;3.20;;
3211;SDS011;1618;47.056;15.472;2023-06-05T14:28:03;3.23;;;3.03;;
3211;SDS011;1618;47.056;15.472;2023-06-05T14:30:32;3.13;;;3.00;;
3211;SDS011;1618;47.056;15.472;2023-06-05T14:33:00;3.27;;;3.07;;
3211;SDS011;1618;47.056;15.472;2023-06-05T14:35:30;3.63;;;3.43;;
3211;SDS011;1618;47.056;15.472;2023-06-05T14:38:01;2.97;;;2.80;;
3211;SDS011;1618;47.056;15.472;2023-06-05T14:40:29;2.67;;;2.50;;
3211;SDS011;1618;47.056;15.472;2023-06-05T14:42:57;3.43;;;3.13;;
3211;SDS011;1618;47.056;15.472;2023-06-05T14:45:25;2.60;;;2.50;;
3211;SDS011;1618;47.056;15.472;2023-06-05T14:47:53;2.43;;;2.33;;
3211;SDS011;1618;47.056;15.472;2023-06-05T14:50:26;3.07;;;2.90;;
3211;SDS011;1618;47.056;15.472;2023-06-05T14:52:54;2.20;;;2.10;;
3211;SDS011;1618;47.056;15.472;2023-06-05T14:55:23;2.77;;;2.60;;
3211;SDS011;1618;47.056;15.472;2023-06-05T14:57:50;2.40;;;2.30;;
3211;SDS011;1618;47.056;15.472;2023-06-05T15:00:18;2.97;;;2.87;;
3211;SDS011;1618;47.056;15.472;2023-06-05T15:02:46;3.30;;;3.10;;
3211;SDS011;1618;47.056;15.472;2023-06-05T15:05:15;3.00;;;2.80;;
3211;SDS011;1618;47.056;15.472;2023-06-05T15:07:42;2.87;;;2.37;;
3211;SDS011;1618;47.056;15.472;2023-06-05T15:10:11;2.57;;;2.47;;
3211;SDS011;1618;47.056;15.472;2023-06-05T15:12:42;2.50;;;2.40;;
3211;SDS011;1618;47.056;15.472;2023-06-05T15:15:11;3.20;;;3.00;;
3211;SDS011;1618;47.056;15.472;2023-06-05T15:17:38;2.70;;;2.50;;
3211;SDS011;1618;47.056;15.472;2023-06-05T15:20:07;2.77;;;2.57;;
3211;SDS011;1618;47.056;15.472;2023-06-05T15:22:36;2.63;;;2.53;;
3211;SDS011;1618;47.056;15.472;2023-06-05T15:25:04;2.97;;;2.80;;
3211;SDS011;1618;47.056;15.472;2023-06-05T15:27:32;2.70;;;2.60;;
3211;SDS011;1618;47.056;15.472;2023-06-05T15:30:01;2.90;;;2.70;;
3211;SDS011;1618;47.056;15.472;2023-06-05T15:32:30;2.73;;;2.63;;
3211;SDS011;1618;47.056;15.472;2023-06-05T15:34:59;3.07;;;2.97;;
3211;SDS011;1618;47.056;15.472;2023-06-05T15:37:27;3.43;;;3.23;;
3211;SDS011;1618;47.056;15.472;2023-06-05T15:39:55;2.73;;;2.63;;
3211;SDS011;1618;47.056;15.472;2023-06-05T15:42:32;3.37;;;3.13;;